Time,TemperatureF,DewpointF,PressureIn,WindDirection,WindDirectionDegrees,WindSpeedMPH,WindSpeedGustMPH,Humidity,HourlyPrecipIn,Conditions,Clouds,dailyrainin,SoftwareType,DateUTC
2013-07-17 00:02:00,74.0,72.0,-100.00,SE,145,3.0,7.0,92,0.00,,,-99.99,,2013-07-17 05:02:00,
2013-07-17 00:11:00,74.0,72.0,-100.00,SE,145,3.0,7.0,92,0.00,,,-99.99,,2013-07-17 05:11:00,
2013-07-17 00:32:00,74.0,71.0,-100.00,SE,135,2.0,7.0,92,0.00,,,-99.99,,2013-07-17 05:32:00,
2013-07-17 00:52:00,73.0,71.0,-100.00,West,270,0.0,3.0,92,0.00,,,-99.99,,2013-07-17 05:52:00,
2013-07-17 01:01:00,73.0,70.0,-100.00,SSE,160,1.0,2.0,92,0.00,,,-99.99,,2013-07-17 06:01:00,
2013-07-17 01:11:00,73.0,70.0,-100.00,SSE,160,1.0,2.0,92,0.00,,,-99.99,,2013-07-17 06:11:00,
2013-07-17 01:52:00,72.0,70.0,-100.00,NNW,340,1.0,2.0,94,0.00,,,-99.99,,2013-07-17 06:52:00,
2013-07-17 02:01:00,72.0,70.0,-100.00,WSW,250,1.0,3.0,94,0.00,,,-99.99,,2013-07-17 07:01:00,
2013-07-17 02:11:00,72.0,70.0,-100.00,WSW,250,1.0,3.0,94,0.00,,,-99.99,,2013-07-17 07:11:00,
2013-07-17 02:52:00,71.0,69.0,-100.00,NNW,340,1.0,2.0,95,0.00,,,-99.99,,2013-07-17 07:52:00,
2013-07-17 03:01:00,70.0,69.0,-100.00,North,5,1.0,4.0,96,0.00,,,-99.99,,2013-07-17 08:01:00,
2013-07-17 03:11:00,70.0,69.0,-100.00,North,5,1.0,4.0,96,0.00,,,-99.99,,2013-07-17 08:11:00,
2013-07-17 03:53:00,68.0,67.0,-100.00,NE,35,0.0,1.0,96,0.00,,,-99.99,,2013-07-17 08:53:00,
2013-07-17 04:02:00,68.0,67.0,-100.00,North,350,0.0,2.0,96,0.00,,,-99.99,,2013-07-17 09:02:00,
2013-07-17 04:12:00,68.0,67.0,-100.00,North,350,0.0,2.0,96,0.00,,,-99.99,,2013-07-17 09:12:00,
2013-07-17 04:52:00,68.0,67.0,-100.00,SE,125,2.0,2.0,96,0.00,,,-99.99,,2013-07-17 09:52:00,
2013-07-17 05:01:00,67.0,66.0,-100.00,SE,125,0.0,1.0,96,0.00,,,-99.99,,2013-07-17 10:01:00,
2013-07-17 05:11:00,67.0,66.0,-100.00,SE,125,0.0,1.0,96,0.00,,,-99.99,,2013-07-17 10:11:00,
2013-07-17 05:52:00,66.0,65.0,-100.00,NW,320,0.0,1.0,97,0.00,,,-99.99,,2013-07-17 10:52:00,
2013-07-17 06:01:00,66.0,65.0,-100.00,NNW,330,2.0,4.0,97,0.00,,,-99.99,,2013-07-17 11:01:00,
2013-07-17 06:11:00,66.0,65.0,-100.00,NNW,330,2.0,4.0,97,0.00,,,-99.99,,2013-07-17 11:11:00,
2013-07-17 06:52:00,66.0,65.0,-100.00,NE,35,1.0,2.0,97,0.00,,,-99.99,,2013-07-17 11:52:00,
2013-07-17 07:01:00,66.0,65.0,-100.00,NW,325,4.0,5.0,97,0.00,,,-99.99,,2013-07-17 12:01:00,
2013-07-17 07:12:00,66.0,65.0,-100.00,NW,325,4.0,5.0,97,0.00,,,-99.99,,2013-07-17 12:12:00,
2013-07-17 07:53:00,62.0,62.0,-100.00,NNE,15,1.0,2.0,97,0.00,,,-99.99,,2013-07-17 12:53:00,
2013-07-17 08:01:00,61.0,60.0,-100.00,ESE,105,1.0,3.0,97,0.00,,,-99.99,,2013-07-17 13:01:00,
2013-07-17 08:52:00,70.0,69.0,-100.00,WNW,290,1.0,2.0,97,0.00,,,-99.99,,2013-07-17 13:52:00,
2013-07-17 09:02:00,71.0,70.0,-100.00,NW,315,0.0,1.0,97,0.00,,,-99.99,,2013-07-17 14:02:00,
2013-07-17 09:11:00,71.0,70.0,-100.00,NW,315,0.0,1.0,97,0.00,,,-99.99,,2013-07-17 14:11:00,
2013-07-17 09:32:00,70.0,68.0,-100.00,WNW,300,3.0,6.0,94,0.00,,,-99.99,,2013-07-17 14:32:00,
2013-07-17 10:52:00,77.0,71.0,-100.00,ESE,120,2.0,4.0,81,0.00,,,-99.99,,2013-07-17 15:52:00,
2013-07-17 11:02:00,78.0,71.0,-100.00,ESE,120,1.0,4.0,79,0.00,,,-99.99,,2013-07-17 16:02:00,
2013-07-17 11:11:00,78.0,71.0,-100.00,ESE,120,1.0,4.0,79,0.00,,,-99.99,,2013-07-17 16:11:00,
2013-07-17 11:52:00,81.0,70.0,-100.00,South,170,3.0,6.0,69,0.00,,,-99.99,,2013-07-17 16:52:00,
2013-07-17 12:01:00,81.0,70.0,-100.00,ESE,110,4.0,6.0,69,0.00,,,-99.99,,2013-07-17 17:01:00,
2013-07-17 12:11:00,81.0,70.0,-100.00,ESE,110,4.0,6.0,69,0.00,,,-99.99,,2013-07-17 17:11:00,
2013-07-17 12:52:00,84.0,71.0,-100.00,South,170,3.0,6.0,66,0.00,,,-99.99,,2013-07-17 17:52:00,
2013-07-17 13:01:00,81.0,69.0,-100.00,SSE,165,3.0,6.0,67,0.00,,,-99.99,,2013-07-17 18:01:00,
2013-07-17 13:11:00,81.0,69.0,-100.00,SSE,165,3.0,6.0,67,0.00,,,-99.99,,2013-07-17 18:11:00,
2013-07-17 13:32:00,83.0,72.0,-100.00,ESE,115,1.0,6.0,68,0.00,,,-99.99,,2013-07-17 18:32:00,
2013-07-17 13:52:00,84.0,71.0,-100.00,SW,215,4.0,7.0,65,0.00,,,-99.99,,2013-07-17 18:52:00,
2013-07-17 14:01:00,86.0,73.0,-100.00,SE,125,2.0,7.0,65,0.00,,,-99.99,,2013-07-17 19:01:00,
2013-07-17 14:11:00,86.0,73.0,-100.00,SE,125,2.0,7.0,65,0.00,,,-99.99,,2013-07-17 19:11:00,
2013-07-17 14:53:00,85.0,70.0,-100.00,SE,125,4.0,9.0,61,0.00,,,-99.99,,2013-07-17 19:53:00,
2013-07-17 15:01:00,85.0,70.0,-100.00,SE,135,4.0,9.0,59,0.00,,,-99.99,,2013-07-17 20:01:00,
2013-07-17 15:11:00,85.0,70.0,-100.00,SE,135,4.0,9.0,59,0.00,,,-99.99,,2013-07-17 20:11:00,
2013-07-17 15:53:00,88.0,69.0,-100.00,NE,50,3.0,9.0,54,0.00,,,-99.99,,2013-07-17 20:53:00,
2013-07-17 16:01:00,88.0,69.0,-100.00,South,175,4.0,9.0,54,0.00,,,-99.99,,2013-07-17 21:01:00,
2013-07-17 16:12:00,88.0,69.0,-100.00,South,175,4.0,9.0,54,0.00,,,-99.99,,2013-07-17 21:12:00,
2013-07-17 16:32:00,88.0,69.0,-100.00,SSW,200,4.0,9.0,53,0.00,,,-99.99,,2013-07-17 21:32:00,
2013-07-17 16:52:00,89.0,70.0,-100.00,South,180,6.0,8.0,54,0.00,,,-99.99,,2013-07-17 21:52:00,
2013-07-17 17:01:00,88.0,69.0,-100.00,SSE,155,6.0,9.0,52,0.00,,,-99.99,,2013-07-17 22:01:00,
2013-07-17 17:11:00,88.0,69.0,-100.00,SSE,155,6.0,9.0,52,0.00,,,-99.99,,2013-07-17 22:11:00,
2013-07-17 17:53:00,91.0,69.0,-100.00,SSE,165,5.0,9.0,48,0.00,,,-99.99,,2013-07-17 22:53:00,
2013-07-17 18:01:00,92.0,69.0,-100.00,SSE,150,2.0,8.0,48,0.00,,,-99.99,,2013-07-17 23:01:00,
2013-07-17 18:11:00,92.0,69.0,-100.00,SSE,150,2.0,8.0,48,0.00,,,-99.99,,2013-07-17 23:11:00,
2013-07-17 18:52:00,88.0,66.0,-100.00,South,170,5.0,9.0,47,0.00,,,-99.99,,2013-07-17 23:52:00,
2013-07-17 19:01:00,86.0,65.0,-100.00,ESE,115,3.0,9.0,48,0.00,,,-99.99,,2013-07-18 00:01:00,
2013-07-17 19:11:00,86.0,65.0,-100.00,ESE,115,3.0,9.0,48,0.00,,,-99.99,,2013-07-18 00:11:00,
2013-07-17 19:43:00,86.0,67.0,-100.00,South,175,4.0,9.0,52,0.00,,,-99.99,,2013-07-18 00:43:00,
2013-07-17 19:52:00,88.0,70.0,-100.00,South,180,4.0,9.0,55,0.00,,,-99.99,,2013-07-18 00:52:00,
2013-07-17 20:01:00,84.0,67.0,-100.00,SSW,205,4.0,9.0,56,0.00,,,-99.99,,2013-07-18 01:01:00,
2013-07-17 20:11:00,84.0,67.0,-100.00,SSW,205,4.0,9.0,56,0.00,,,-99.99,,2013-07-18 01:11:00,
2013-07-17 20:32:00,86.0,72.0,-100.00,South,190,2.0,6.0,63,0.00,,,-99.99,,2013-07-18 01:32:00,
2013-07-17 20:53:00,86.0,72.0,-100.00,SW,235,3.0,6.0,63,0.00,,,-99.99,,2013-07-18 01:53:00,
2013-07-17 21:01:00,85.0,71.0,-100.00,WSW,255,2.0,4.0,62,0.00,,,-99.99,,2013-07-18 02:01:00,
2013-07-17 21:11:00,85.0,71.0,-100.00,WSW,255,2.0,4.0,62,0.00,,,-99.99,,2013-07-18 02:11:00,
2013-07-17 21:52:00,79.0,70.0,-100.00,North,355,0.0,2.0,74,0.00,,,-99.99,,2013-07-18 02:52:00,
2013-07-17 22:01:00,79.0,71.0,-100.00,NNE,25,1.0,4.0,76,0.00,,,-99.99,,2013-07-18 03:01:00,
2013-07-17 22:11:00,79.0,71.0,-100.00,NNE,25,1.0,4.0,76,0.00,,,-99.99,,2013-07-18 03:11:00,
2013-07-17 22:52:00,76.0,72.0,-100.00,ESE,105,0.0,2.0,87,0.00,,,-99.99,,2013-07-18 03:52:00,
2013-07-17 23:02:00,76.0,72.0,-100.00,NNW,330,1.0,3.0,87,0.00,,,-99.99,,2013-07-18 04:02:00,
2013-07-17 23:12:00,76.0,72.0,-100.00,NNW,330,1.0,3.0,87,0.00,,,-99.99,,2013-07-18 04:12:00,
2013-07-17 23:52:00,76.0,74.0,-100.00,NNW,345,1.0,2.0,92,0.00,,,-99.99,,2013-07-18 04:52:00,